createdAt,value
2019-05-15T00:01:28.527Z,99.90
2019-05-15T00:05:33.178Z,99.90
2019-05-15T00:09:33.540Z,99.90
2019-05-15T00:13:34.419Z,99.90
2019-05-15T00:17:32.985Z,99.90
2019-05-15T00:21:31.557Z,99.90
2019-05-15T00:25:32.095Z,99.90
2019-05-15T00:29:35.375Z,99.90
2019-05-15T00:33:49.346Z,99.90
2019-05-15T00:37:51.335Z,99.90
2019-05-15T00:41:54.362Z,99.90
2019-05-15T00:45:50.043Z,99.90
2019-05-15T00:49:48.907Z,99.90
2019-05-15T00:53:49.195Z,99.90
2019-05-15T00:57:48.581Z,99.90
2019-05-15T01:01:48.798Z,99.90
2019-05-15T01:05:49.278Z,99.90
2019-05-15T01:09:48.709Z,99.90
2019-05-15T01:13:58.945Z,99.90
2019-05-15T01:17:49.266Z,99.90
2019-05-15T01:21:48.262Z,99.90
2019-05-15T01:25:48.230Z,99.90
2019-05-15T01:29:49.158Z,99.90
2019-05-15T01:33:48.168Z,99.90
2019-05-15T01:37:48.357Z,99.90
2019-05-15T01:41:53.209Z,99.90
2019-05-15T01:45:51.731Z,99.90
2019-05-15T01:49:51.958Z,99.90
2019-05-15T01:53:53.366Z,99.90
2019-05-15T01:57:51.837Z,99.90
2019-05-15T02:01:53.956Z,99.90
2019-05-15T02:05:52.420Z,99.90
2019-05-15T02:09:52.815Z,99.90
2019-05-15T02:13:51.287Z,99.90
2019-05-15T02:17:49.747Z,99.90
2019-05-15T02:21:48.733Z,99.90
2019-05-15T02:25:48.138Z,99.90
2019-05-15T02:29:49.121Z,99.90
2019-05-15T02:33:49.608Z,99.90
2019-05-15T02:37:48.950Z,99.90
2019-05-15T02:41:49.103Z,99.90
2019-05-15T02:45:50.969Z,99.90
2019-05-15T02:49:48.654Z,99.90
2019-05-15T02:53:50.067Z,99.90
2019-05-15T02:57:49.508Z,99.90
2019-05-15T03:01:49.372Z,99.90
2019-05-15T03:05:51.184Z,99.90
2019-05-15T03:09:49.983Z,99.90
2019-05-15T03:13:50.271Z,99.90
2019-05-15T03:17:53.051Z,99.90
2019-05-15T03:21:52.829Z,99.90
2019-05-15T03:25:51.338Z,99.90
2019-05-15T03:29:49.798Z,99.90
2019-05-15T03:33:53.406Z,99.90
2019-05-15T03:37:49.238Z,99.90
2019-05-15T03:41:49.737Z,99.90
2019-05-15T03:45:49.291Z,99.90
2019-05-15T03:49:53.770Z,99.90
2019-05-15T03:53:52.219Z,99.90
2019-05-15T03:57:51.326Z,99.90
2019-05-15T04:01:49.957Z,99.90
2019-05-15T04:05:49.394Z,99.90
2019-05-15T04:10:01.194Z,99.90
2019-05-15T04:14:02.090Z,99.90
2019-05-15T04:18:01.763Z,99.90
2019-05-15T04:22:09.061Z,99.90
2019-05-15T04:26:14.412Z,99.90
2019-05-15T04:30:21.269Z,99.90
2019-05-15T04:34:22.384Z,99.90
2019-05-15T04:38:20.929Z,99.90
2019-05-15T04:42:20.277Z,99.90
2019-05-15T04:46:20.047Z,99.90
2019-05-15T04:50:19.428Z,99.90
2019-05-15T04:54:20.191Z,99.90
2019-05-15T04:58:20.818Z,99.90
2019-05-15T05:02:26.727Z,99.90
2019-05-15T05:06:25.957Z,99.90
2019-05-15T05:10:29.137Z,99.90
2019-05-15T05:14:31.442Z,99.90
2019-05-15T05:18:34.952Z,99.90
2019-05-15T05:22:45.569Z,99.90
2019-05-15T05:26:55.022Z,99.90
2019-05-15T05:30:54.775Z,99.90
2019-05-15T05:34:58.882Z,99.90
2019-05-15T05:38:58.420Z,99.90
2019-05-15T05:43:10.962Z,99.90
2019-05-15T05:47:12.347Z,99.90
2019-05-15T05:51:13.287Z,99.90
2019-05-15T05:55:13.236Z,99.90
2019-05-15T05:59:12.842Z,99.90
2019-05-15T06:03:11.650Z,99.90
2019-05-15T06:07:18.436Z,99.90
2019-05-15T06:11:11.003Z,99.90
2019-05-15T06:15:17.929Z,99.90
2019-05-15T06:19:18.306Z,99.90
2019-05-15T06:23:23.326Z,99.90
2019-05-15T06:27:19.956Z,99.90
2019-05-15T06:31:21.877Z,99.90
2019-05-15T06:35:20.860Z,99.90
2019-05-15T06:39:19.431Z,99.90
2019-05-15T06:43:19.250Z,99.90
2019-05-15T06:47:20.309Z,99.90
2019-05-15T06:51:24.747Z,99.90
2019-05-15T06:55:25.122Z,99.90
2019-05-15T06:59:32.879Z,99.90
2019-05-15T07:03:31.448Z,99.90
2019-05-15T07:07:33.101Z,99.90
2019-05-15T07:11:32.131Z,99.90
2019-05-15T07:15:31.189Z,99.90
2019-05-15T07:19:33.134Z,99.90
2019-05-15T07:23:31.775Z,99.90
2019-05-15T07:27:33.986Z,97.80
2019-05-15T07:31:38.913Z,92.40
2019-05-15T07:35:40.196Z,94.50
2019-05-15T07:39:48.622Z,89.90
2019-05-15T07:43:49.451Z,81.20
2019-05-15T07:47:50.867Z,81.60
2019-05-15T07:51:54.825Z,73.60
2019-05-15T07:55:53.446Z,73.00
2019-05-15T07:59:52.024Z,69.30
2019-05-15T08:03:59.148Z,68.50
2019-05-15T08:07:58.057Z,67.20
2019-05-15T08:11:55.231Z,67.90
2019-05-15T08:15:57.989Z,67.80
2019-05-15T08:20:01.630Z,69.30
2019-05-15T08:24:12.055Z,68.50
2019-05-15T08:28:15.402Z,69.90
2019-05-15T08:32:18.812Z,68.00
2019-05-15T08:36:22.882Z,67.90
2019-05-15T08:40:23.595Z,66.60
2019-05-15T08:44:26.245Z,70.50
2019-05-15T08:48:32.915Z,67.70
2019-05-15T08:52:31.667Z,69.50
2019-05-15T08:56:30.312Z,66.70
2019-05-15T09:00:33.792Z,65.40
2019-05-15T09:04:35.156Z,66.70
2019-05-15T09:08:39.094Z,67.90
2019-05-15T09:12:39.418Z,68.40
2019-05-15T09:16:38.727Z,68.60
2019-05-15T09:20:41.528Z,68.00
2019-05-15T09:24:48.871Z,67.50
2019-05-15T09:28:49.815Z,68.60
2019-05-15T09:32:50.420Z,66.90
2019-05-15T09:36:51.846Z,67.80
2019-05-15T09:40:51.210Z,69.40
2019-05-15T09:44:58.359Z,69.60
2019-05-15T09:49:08.604Z,68.90
2019-05-15T09:53:14.687Z,69.40
2019-05-15T09:57:13.479Z,68.60
2019-05-15T10:01:12.430Z,68.00
2019-05-15T10:05:18.774Z,69.00
2019-05-15T10:09:18.866Z,68.00
2019-05-15T10:13:18.895Z,69.00
2019-05-15T10:17:22.037Z,67.70
2019-05-15T10:21:20.782Z,67.60
2019-05-15T10:25:22.228Z,67.20
2019-05-15T10:29:22.812Z,65.70
2019-05-15T10:33:21.472Z,65.50
2019-05-15T10:37:28.243Z,67.00
2019-05-15T10:41:28.122Z,65.70
2019-05-15T10:45:29.585Z,65.50
2019-05-15T10:49:33.848Z,65.90
2019-05-15T10:53:32.676Z,63.10
2019-05-15T10:57:33.838Z,64.30
2019-05-15T11:01:42.322Z,64.30
2019-05-15T11:05:45.558Z,65.20
2019-05-15T11:09:41.975Z,62.20
2019-05-15T11:13:43.360Z,63.20
2019-05-15T11:17:42.498Z,63.30
2019-05-15T11:21:43.534Z,62.50
2019-05-15T11:25:45.157Z,62.20
2019-05-15T11:29:43.670Z,61.10
2019-05-15T11:33:45.071Z,62.00
2019-05-15T11:37:46.371Z,60.90
2019-05-15T11:41:43.946Z,61.50
2019-05-15T11:45:42.693Z,62.60
2019-05-15T11:49:42.771Z,59.90
2019-05-15T11:53:44.589Z,59.80
2019-05-15T11:57:47.296Z,59.20
2019-05-15T12:01:48.731Z,59.10
2019-05-15T12:05:48.398Z,59.90
2019-05-15T12:09:49.076Z,57.20
2019-05-15T12:13:47.653Z,57.70
2019-05-15T12:17:48.922Z,58.40
2019-05-15T12:21:52.669Z,58.80
2019-05-15T12:25:51.240Z,56.50
2019-05-15T12:29:59.912Z,57.50
2019-05-15T12:33:59.192Z,56.40
2019-05-15T12:37:57.889Z,56.20
2019-05-15T13:02:08.050Z,57.70
2019-05-15T13:06:08.922Z,57.20
2019-05-15T13:10:11.919Z,57.20
2019-05-15T13:14:15.758Z,57.90
2019-05-15T13:18:18.364Z,57.10
2019-05-15T13:22:19.483Z,57.50
2019-05-15T13:26:23.733Z,57.80
2019-05-15T13:30:20.809Z,57.40
2019-05-15T13:34:21.568Z,56.40
2019-05-15T13:38:23.621Z,55.50
2019-05-15T13:42:29.582Z,55.40
2019-05-15T13:46:29.264Z,54.90
2019-05-15T13:50:28.524Z,55.60
2019-05-15T13:54:33.200Z,54.40
2019-05-15T13:58:31.745Z,53.70
2019-05-15T14:02:33.654Z,50.10
2019-05-15T14:06:40.182Z,46.60
2019-05-15T14:10:39.174Z,45.20
2019-05-15T14:14:48.998Z,48.20
2019-05-15T14:18:48.559Z,49.00
2019-05-15T14:22:49.915Z,50.70
2019-05-15T14:26:53.315Z,50.40
2019-05-15T14:30:51.942Z,51.80
2019-05-15T14:34:53.713Z,51.50
2019-05-15T14:38:52.620Z,50.30
2019-05-15T14:47:11.090Z,39.50
2019-05-15T14:51:19.261Z,38.20
2019-05-15T14:55:32.423Z,37.60
2019-05-15T14:59:26.950Z,36.70
2019-05-15T15:03:31.738Z,35.90
2019-05-15T15:07:30.329Z,35.70
2019-05-15T15:11:34.745Z,36.40
2019-05-15T15:15:42.287Z,35.40
2019-05-15T15:19:51.371Z,35.10
2019-05-15T15:23:51.411Z,35.20
2019-05-15T15:27:51.704Z,35.40
2019-05-15T15:31:52.436Z,34.80
2019-05-15T15:35:58.118Z,34.30
2019-05-15T15:40:00.805Z,33.00
2019-05-15T15:43:59.324Z,33.10
2019-05-15T15:47:58.755Z,33.30
2019-05-15T15:51:58.114Z,33.80
2019-05-15T15:55:59.617Z,34.30
2019-05-15T15:59:58.377Z,34.30
2019-05-15T16:03:56.929Z,37.20
2019-05-15T16:07:59.149Z,36.90
2019-05-15T16:12:25.047Z,36.20
2019-05-15T16:16:23.602Z,37.90
2019-05-15T16:20:22.328Z,38.50
2019-05-15T16:24:23.756Z,41.70
2019-05-15T16:28:22.350Z,45.20
2019-05-15T16:32:22.760Z,45.60
2019-05-15T16:36:23.682Z,46.20
2019-05-15T16:44:49.145Z,48.80
2019-05-15T16:48:54.642Z,47.90
2019-05-15T16:52:55.135Z,48.70
2019-05-15T16:57:00.584Z,49.20
2019-05-15T17:00:59.145Z,49.60
2019-05-15T17:04:59.392Z,48.80
2019-05-15T17:08:58.288Z,50.10
2019-05-15T17:12:58.340Z,51.60
2019-05-15T17:17:00.893Z,54.20
2019-05-15T17:21:01.193Z,54.20
2019-05-15T17:25:01.789Z,55.00
2019-05-15T17:29:00.760Z,55.90
2019-05-15T17:33:02.348Z,55.60
2019-05-15T17:37:00.915Z,55.60
2019-05-15T17:41:08.845Z,55.60
2019-05-15T17:45:09.694Z,55.80
2019-05-15T17:49:15.747Z,55.70
2019-05-15T17:53:18.223Z,54.60
2019-05-15T17:57:20.242Z,55.10
2019-05-15T18:01:19.327Z,56.10
2019-05-15T18:05:33.912Z,57.20
2019-05-15T18:09:50.689Z,57.60
2019-05-15T18:13:48.770Z,58.40
2019-05-15T18:17:50.274Z,59.00
2019-05-15T18:21:49.850Z,59.40
2019-05-15T18:25:53.419Z,59.10
2019-05-15T18:29:49.741Z,59.50
2019-05-15T18:33:53.683Z,60.00
2019-05-15T18:37:50.229Z,60.30
2019-05-15T18:41:53.213Z,60.50
2019-05-15T18:45:52.087Z,61.30
2019-05-15T18:50:05.803Z,62.00
2019-05-15T18:53:58.817Z,63.70
2019-05-15T18:58:30.152Z,63.70
2019-05-15T19:02:30.774Z,64.00
2019-05-15T19:06:29.424Z,64.40
2019-05-15T19:10:31.390Z,64.20
2019-05-15T19:14:29.973Z,68.90
2019-05-15T19:18:35.097Z,65.10
2019-05-15T19:22:41.073Z,65.40
2019-05-15T19:26:44.532Z,66.00
2019-05-15T19:30:43.088Z,66.70
2019-05-15T19:34:43.773Z,67.80
2019-05-15T19:38:45.108Z,68.00
2019-05-15T19:42:51.682Z,70.30
2019-05-15T19:46:58.454Z,71.10
2019-05-15T19:50:58.255Z,72.10
2019-05-15T19:54:59.039Z,73.70
2019-05-15T19:58:58.196Z,74.10
2019-05-15T20:02:58.074Z,74.50
2019-05-15T20:06:58.516Z,76.10
2019-05-15T20:11:00.729Z,78.30
2019-05-15T20:14:59.714Z,80.40
2019-05-15T20:19:05.139Z,82.90
2019-05-15T20:23:04.137Z,86.50
2019-05-15T20:27:08.352Z,90.40
2019-05-15T20:31:12.804Z,93.20
2019-05-15T20:35:15.269Z,96.20
2019-05-15T20:39:13.833Z,99.50
2019-05-15T20:43:20.204Z,99.90
2019-05-15T20:47:20.867Z,99.90
2019-05-15T20:51:20.958Z,99.90
2019-05-15T20:55:19.809Z,99.90
2019-05-15T20:59:20.195Z,99.90
2019-05-15T21:03:19.542Z,99.90
2019-05-15T21:07:34.734Z,99.90
2019-05-15T21:11:27.912Z,99.90
2019-05-15T21:15:26.793Z,99.90
2019-05-15T21:19:27.873Z,99.90
2019-05-15T21:23:29.731Z,99.90
2019-05-15T21:27:32.933Z,99.90
2019-05-15T21:31:31.387Z,99.90
2019-05-15T21:35:38.178Z,99.90
2019-05-15T21:39:44.076Z,99.90
2019-05-15T21:43:45.207Z,99.90
2019-05-15T21:47:44.256Z,99.90
2019-05-15T21:51:42.819Z,99.90
2019-05-15T21:55:44.193Z,99.90
2019-05-15T21:59:44.368Z,99.90
2019-05-15T22:03:43.061Z,99.90
2019-05-15T22:07:42.132Z,99.90
2019-05-15T22:11:41.724Z,99.90
2019-05-15T22:15:41.044Z,99.90
2019-05-15T22:19:39.886Z,99.90
2019-05-15T22:23:38.894Z,99.90
2019-05-15T22:27:38.252Z,99.90
2019-05-15T22:31:41.968Z,99.90
2019-05-15T22:35:40.600Z,99.90
2019-05-15T22:39:42.408Z,99.90
2019-05-15T22:43:41.166Z,99.90
2019-05-15T22:47:43.487Z,99.90
2019-05-15T22:51:44.047Z,99.90
2019-05-15T22:55:42.997Z,99.90
2019-05-15T22:59:42.215Z,99.90
2019-05-15T23:03:43.228Z,99.90
2019-05-15T23:07:41.382Z,99.90
2019-05-15T23:11:52.218Z,99.90
2019-05-15T23:15:53.735Z,99.90
2019-05-15T23:19:58.200Z,99.90
2019-05-15T23:23:57.223Z,99.90
2019-05-15T23:27:57.921Z,99.90
2019-05-15T23:31:59.453Z,99.90
2019-05-15T23:35:58.720Z,99.90
2019-05-15T23:39:57.974Z,99.90
2019-05-15T23:43:56.628Z,99.90
2019-05-15T23:47:57.955Z,99.90
2019-05-15T23:51:55.491Z,99.90
2019-05-15T23:55:54.103Z,99.90
2019-05-15T23:59:53.058Z,99.90
